sensor_id;sensor_type;location;lat;lon;timestamp;P1;durP1;ratioP1;P2;durP2;ratioP2
29380;SDS011;16364;52.490;13.326;2023-10-09T00:02:02;2.60;;;1.67;;
29380;SDS011;16364;52.490;13.326;2023-10-09T00:04:31;2.83;;;1.90;;
29380;SDS011;16364;52.490;13.326;2023-10-09T00:06:56;1.73;;;1.50;;
29380;SDS011;16364;52.490;13.326;2023-10-09T00:09:24;2.60;;;1.30;;
29380;SDS011;16364;52.490;13.326;2023-10-09T00:11:50;2.70;;;1.60;;
29380;SDS011;16364;52.490;13.326;2023-10-09T00:14:22;1.50;;;1.40;;
29380;SDS011;16364;52.490;13.326;2023-10-09T00:16:47;1.93;;;1.60;;
29380;SDS011;16364;52.490;13.326;2023-10-09T00:19:30;2.57;;;1.50;;
29380;SDS011;16364;52.490;13.326;2023-10-09T00:21:58;1.60;;;1.50;;
29380;SDS011;16364;52.490;13.326;2023-10-09T00:24:28;1.73;;;1.60;;
29380;SDS011;16364;52.490;13.326;2023-10-09T00:26:54;3.20;;;1.70;;
29380;SDS011;16364;52.490;13.326;2023-10-09T00:29:36;2.90;;;1.67;;
29380;SDS011;16364;52.490;13.326;2023-10-09T00:32:08;4.13;;;2.00;;
29380;SDS011;16364;52.490;13.326;2023-10-09T00:35:03;3.93;;;1.57;;
29380;SDS011;16364;52.490;13.326;2023-10-09T00:37:48;2.30;;;2.10;;
29380;SDS011;16364;52.490;13.326;2023-10-09T00:40:16;1.93;;;1.80;;
29380;SDS011;16364;52.490;13.326;2023-10-09T00:42:52;1.77;;;1.57;;
29380;SDS011;16364;52.490;13.326;2023-10-09T00:45:20;1.90;;;1.70;;
29380;SDS011;16364;52.490;13.326;2023-10-09T00:47:52;1.93;;;1.60;;
29380;SDS011;16364;52.490;13.326;2023-10-09T00:50:21;1.93;;;1.60;;
29380;SDS011;16364;52.490;13.326;2023-10-09T00:52:53;1.83;;;1.60;;
29380;SDS011;16364;52.490;13.326;2023-10-09T00:55:33;2.50;;;1.77;;
29380;SDS011;16364;52.490;13.326;2023-10-09T00:58:13;2.13;;;1.80;;
29380;SDS011;16364;52.490;13.326;2023-10-09T01:00:39;1.87;;;1.40;;
29380;SDS011;16364;52.490;13.326;2023-10-09T01:03:14;3.00;;;1.40;;
29380;SDS011;16364;52.490;13.326;2023-10-09T01:05:43;2.40;;;1.50;;
29380;SDS011;16364;52.490;13.326;2023-10-09T01:08:16;3.30;;;1.50;;
29380;SDS011;16364;52.490;13.326;2023-10-09T01:10:50;2.80;;;1.80;;
29380;SDS011;16364;52.490;13.326;2023-10-09T01:13:22;2.47;;;1.60;;
29380;SDS011;16364;52.490;13.326;2023-10-09T01:16:04;1.97;;;1.73;;
29380;SDS011;16364;52.490;13.326;2023-10-09T01:18:30;1.60;;;1.40;;
29380;SDS011;16364;52.490;13.326;2023-10-09T01:21:01;2.63;;;1.90;;
29380;SDS011;16364;52.490;13.326;2023-10-09T01:23:27;1.63;;;1.53;;
29380;SDS011;16364;52.490;13.326;2023-10-09T01:25:54;4.10;;;1.60;;
29380;SDS011;16364;52.490;13.326;2023-10-09T01:28:19;2.07;;;1.90;;
29380;SDS011;16364;52.490;13.326;2023-10-09T01:30:45;2.20;;;2.00;;
29380;SDS011;16364;52.490;13.326;2023-10-09T01:33:12;3.03;;;2.07;;
29380;SDS011;16364;52.490;13.326;2023-10-09T01:35:47;1.60;;;1.50;;
29380;SDS011;16364;52.490;13.326;2023-10-09T01:38:14;2.43;;;1.80;;
29380;SDS011;16364;52.490;13.326;2023-10-09T01:40:40;3.07;;;1.60;;
29380;SDS011;16364;52.490;13.326;2023-10-09T01:43:05;1.97;;;1.60;;
29380;SDS011;16364;52.490;13.326;2023-10-09T01:45:35;2.30;;;1.90;;
29380;SDS011;16364;52.490;13.326;2023-10-09T01:48:07;3.40;;;2.07;;
29380;SDS011;16364;52.490;13.326;2023-10-09T01:50:33;2.47;;;1.90;;
29380;SDS011;16364;52.490;13.326;2023-10-09T01:53:00;1.70;;;1.60;;
29380;SDS011;16364;52.490;13.326;2023-10-09T01:55:30;2.10;;;1.70;;
29380;SDS011;16364;52.490;13.326;2023-10-09T01:58:02;3.20;;;1.90;;
29380;SDS011;16364;52.490;13.326;2023-10-09T02:00:31;2.60;;;1.67;;
29380;SDS011;16364;52.490;13.326;2023-10-09T02:02:56;3.67;;;1.97;;
29380;SDS011;16364;52.490;13.326;2023-10-09T02:05:24;2.40;;;1.83;;
29380;SDS011;16364;52.490;13.326;2023-10-09T02:07:51;2.73;;;1.90;;
29380;SDS011;16364;52.490;13.326;2023-10-09T02:10:21;3.00;;;2.00;;
29380;SDS011;16364;52.490;13.326;2023-10-09T02:12:50;4.73;;;1.80;;
29380;SDS011;16364;52.490;13.326;2023-10-09T02:15:19;2.40;;;2.20;;
29380;SDS011;16364;52.490;13.326;2023-10-09T02:18:04;3.30;;;2.37;;
29380;SDS011;16364;52.490;13.326;2023-10-09T02:20:41;3.70;;;2.10;;
29380;SDS011;16364;52.490;13.326;2023-10-09T02:23:09;2.63;;;1.90;;
29380;SDS011;16364;52.490;13.326;2023-10-09T02:25:38;2.10;;;1.90;;
29380;SDS011;16364;52.490;13.326;2023-10-09T02:28:09;2.00;;;1.80;;
29380;SDS011;16364;52.490;13.326;2023-10-09T02:30:42;2.20;;;1.67;;
29380;SDS011;16364;52.490;13.326;2023-10-09T02:33:07;5.20;;;2.67;;
29380;SDS011;16364;52.490;13.326;2023-10-09T02:35:34;3.73;;;2.07;;
29380;SDS011;16364;52.490;13.326;2023-10-09T02:38:09;3.20;;;2.10;;
29380;SDS011;16364;52.490;13.326;2023-10-09T02:40:40;1.90;;;1.80;;
29380;SDS011;16364;52.490;13.326;2023-10-09T02:43:18;2.90;;;2.27;;
29380;SDS011;16364;52.490;13.326;2023-10-09T02:45:44;3.90;;;2.40;;
29380;SDS011;16364;52.490;13.326;2023-10-09T02:48:15;2.90;;;2.50;;
29380;SDS011;16364;52.490;13.326;2023-10-09T02:50:41;2.87;;;2.07;;
29380;SDS011;16364;52.490;13.326;2023-10-09T02:53:09;2.13;;;2.03;;
29380;SDS011;16364;52.490;13.326;2023-10-09T02:55:43;3.27;;;2.37;;
29380;SDS011;16364;52.490;13.326;2023-10-09T02:58:18;4.43;;;2.40;;
29380;SDS011;16364;52.490;13.326;2023-10-09T03:00:46;7.17;;;2.53;;
29380;SDS011;16364;52.490;13.326;2023-10-09T03:03:12;2.83;;;2.20;;
29380;SDS011;16364;52.490;13.326;2023-10-09T03:05:41;3.87;;;2.20;;
29380;SDS011;16364;52.490;13.326;2023-10-09T03:08:08;2.90;;;2.60;;
29380;SDS011;16364;52.490;13.326;2023-10-09T03:10:37;2.80;;;2.60;;
29380;SDS011;16364;52.490;13.326;2023-10-09T03:13:03;4.37;;;2.13;;
29380;SDS011;16364;52.490;13.326;2023-10-09T03:15:30;4.30;;;2.63;;
29380;SDS011;16364;52.490;13.326;2023-10-09T03:18:00;3.30;;;2.43;;
29380;SDS011;16364;52.490;13.326;2023-10-09T03:20:25;3.10;;;2.70;;
29380;SDS011;16364;52.490;13.326;2023-10-09T03:22:51;4.00;;;2.57;;
29380;SDS011;16364;52.490;13.326;2023-10-09T03:25:19;2.47;;;2.20;;
29380;SDS011;16364;52.490;13.326;2023-10-09T03:27:44;2.50;;;1.97;;
29380;SDS011;16364;52.490;13.326;2023-10-09T03:30:13;3.23;;;2.60;;
29380;SDS011;16364;52.490;13.326;2023-10-09T03:32:48;2.80;;;2.37;;
29380;SDS011;16364;52.490;13.326;2023-10-09T03:35:16;3.90;;;2.83;;
29380;SDS011;16364;52.490;13.326;2023-10-09T03:37:49;3.30;;;2.50;;
29380;SDS011;16364;52.490;13.326;2023-10-09T03:40:15;3.67;;;2.23;;
29380;SDS011;16364;52.490;13.326;2023-10-09T03:42:43;4.03;;;2.40;;
29380;SDS011;16364;52.490;13.326;2023-10-09T03:45:08;2.83;;;2.60;;
29380;SDS011;16364;52.490;13.326;2023-10-09T03:47:55;2.37;;;2.07;;
29380;SDS011;16364;52.490;13.326;2023-10-09T03:50:26;2.97;;;2.23;;
29380;SDS011;16364;52.490;13.326;2023-10-09T03:53:03;3.80;;;2.50;;
29380;SDS011;16364;52.490;13.326;2023-10-09T03:55:31;4.43;;;2.97;;
29380;SDS011;16364;52.490;13.326;2023-10-09T03:57:57;3.60;;;2.43;;
29380;SDS011;16364;52.490;13.326;2023-10-09T04:00:27;4.30;;;2.30;;
29380;SDS011;16364;52.490;13.326;2023-10-09T04:02:56;4.43;;;2.97;;
29380;SDS011;16364;52.490;13.326;2023-10-09T04:05:22;3.37;;;2.10;;
29380;SDS011;16364;52.490;13.326;2023-10-09T04:07:48;5.90;;;3.17;;
29380;SDS011;16364;52.490;13.326;2023-10-09T04:10:14;5.93;;;3.23;;
29380;SDS011;16364;52.490;13.326;2023-10-09T04:12:58;3.67;;;2.93;;
29380;SDS011;16364;52.490;13.326;2023-10-09T04:15:23;2.67;;;2.43;;
29380;SDS011;16364;52.490;13.326;2023-10-09T04:17:49;4.80;;;2.80;;
29380;SDS011;16364;52.490;13.326;2023-10-09T04:20:16;3.27;;;2.97;;
29380;SDS011;16364;52.490;13.326;2023-10-09T04:22:45;1.97;;;1.70;;
29380;SDS011;16364;52.490;13.326;2023-10-09T04:25:17;2.40;;;1.83;;
29380;SDS011;16364;52.490;13.326;2023-10-09T04:27:51;4.90;;;3.43;;
29380;SDS011;16364;52.490;13.326;2023-10-09T04:30:18;3.20;;;2.23;;
29380;SDS011;16364;52.490;13.326;2023-10-09T04:32:43;2.60;;;2.33;;
29380;SDS011;16364;52.490;13.326;2023-10-09T04:35:11;2.40;;;2.20;;
29380;SDS011;16364;52.490;13.326;2023-10-09T04:37:51;2.70;;;2.10;;
29380;SDS011;16364;52.490;13.326;2023-10-09T04:40:29;3.57;;;2.00;;
29380;SDS011;16364;52.490;13.326;2023-10-09T04:43:14;2.90;;;2.40;;
29380;SDS011;16364;52.490;13.326;2023-10-09T04:45:48;2.80;;;2.57;;
29380;SDS011;16364;52.490;13.326;2023-10-09T04:48:32;2.63;;;1.80;;
29380;SDS011;16364;52.490;13.326;2023-10-09T04:51:01;4.70;;;2.90;;
29380;SDS011;16364;52.490;13.326;2023-10-09T04:53:45;3.43;;;2.47;;
29380;SDS011;16364;52.490;13.326;2023-10-09T04:56:13;3.10;;;2.20;;
29380;SDS011;16364;52.490;13.326;2023-10-09T04:58:41;3.20;;;2.37;;
29380;SDS011;16364;52.490;13.326;2023-10-09T05:01:06;3.80;;;2.20;;
29380;SDS011;16364;52.490;13.326;2023-10-09T05:03:38;2.10;;;1.90;;
29380;SDS011;16364;52.490;13.326;2023-10-09T05:06:06;2.80;;;2.23;;
29380;SDS011;16364;52.490;13.326;2023-10-09T05:08:57;4.17;;;2.40;;
29380;SDS011;16364;52.490;13.326;2023-10-09T05:11:32;3.90;;;2.40;;
29380;SDS011;16364;52.490;13.326;2023-10-09T05:14:16;2.30;;;2.00;;
29380;SDS011;16364;52.490;13.326;2023-10-09T05:16:42;3.10;;;2.50;;
29380;SDS011;16364;52.490;13.326;2023-10-09T05:19:22;2.70;;;2.20;;
29380;SDS011;16364;52.490;13.326;2023-10-09T05:21:54;3.77;;;2.80;;
29380;SDS011;16364;52.490;13.326;2023-10-09T05:24:23;2.90;;;2.53;;
29380;SDS011;16364;52.490;13.326;2023-10-09T05:26:49;5.30;;;3.07;;
29380;SDS011;16364;52.490;13.326;2023-10-09T05:29:19;4.90;;;2.87;;
29380;SDS011;16364;52.490;13.326;2023-10-09T05:31:47;3.53;;;3.10;;
29380;SDS011;16364;52.490;13.326;2023-10-09T05:34:31;3.67;;;3.37;;
29380;SDS011;16364;52.490;13.326;2023-10-09T05:37:02;6.40;;;2.67;;
29380;SDS011;16364;52.490;13.326;2023-10-09T05:39:43;2.93;;;2.63;;
29380;SDS011;16364;52.490;13.326;2023-10-09T05:42:09;2.97;;;2.67;;
29380;SDS011;16364;52.490;13.326;2023-10-09T05:44:42;6.50;;;3.70;;
29380;SDS011;16364;52.490;13.326;2023-10-09T05:47:26;4.07;;;3.40;;
29380;SDS011;16364;52.490;13.326;2023-10-09T05:50:00;2.77;;;2.50;;
29380;SDS011;16364;52.490;13.326;2023-10-09T05:52:34;2.80;;;2.60;;
29380;SDS011;16364;52.490;13.326;2023-10-09T05:55:06;3.77;;;3.40;;
29380;SDS011;16364;52.490;13.326;2023-10-09T05:57:49;6.00;;;4.37;;
29380;SDS011;16364;52.490;13.326;2023-10-09T06:00:21;5.77;;;4.10;;
29380;SDS011;16364;52.490;13.326;2023-10-09T06:03:05;4.50;;;3.00;;
29380;SDS011;16364;52.490;13.326;2023-10-09T06:05:49;4.73;;;2.70;;
29380;SDS011;16364;52.490;13.326;2023-10-09T06:08:27;2.83;;;2.53;;
29380;SDS011;16364;52.490;13.326;2023-10-09T06:11:13;5.30;;;3.50;;
29380;SDS011;16364;52.490;13.326;2023-10-09T06:13:59;2.43;;;2.10;;
29380;SDS011;16364;52.490;13.326;2023-10-09T06:16:33;18.57;;;12.67;;
29380;SDS011;16364;52.490;13.326;2023-10-09T06:21:37;19.30;;;16.40;;
29380;SDS011;16364;52.490;13.326;2023-10-09T06:24:08;5.57;;;5.03;;
29380;SDS011;16364;52.490;13.326;2023-10-09T06:26:39;5.37;;;4.10;;
29380;SDS011;16364;52.490;13.326;2023-10-09T06:29:15;6.83;;;3.83;;
29380;SDS011;16364;52.490;13.326;2023-10-09T06:31:41;5.07;;;3.63;;
29380;SDS011;16364;52.490;13.326;2023-10-09T06:34:22;3.53;;;3.23;;
29380;SDS011;16364;52.490;13.326;2023-10-09T06:36:57;3.87;;;3.53;;
29380;SDS011;16364;52.490;13.326;2023-10-09T06:39:28;4.30;;;3.00;;
29380;SDS011;16364;52.490;13.326;2023-10-09T06:42:12;4.13;;;3.03;;
29380;SDS011;16364;52.490;13.326;2023-10-09T06:44:56;3.77;;;2.80;;
29380;SDS011;16364;52.490;13.326;2023-10-09T06:47:21;2.67;;;2.10;;
29380;SDS011;16364;52.490;13.326;2023-10-09T06:49:49;5.87;;;3.03;;
29380;SDS011;16364;52.490;13.326;2023-10-09T06:52:34;5.83;;;2.90;;
29380;SDS011;16364;52.490;13.326;2023-10-09T06:55:18;4.70;;;2.80;;
29380;SDS011;16364;52.490;13.326;2023-10-09T06:57:45;6.13;;;2.43;;
29380;SDS011;16364;52.490;13.326;2023-10-09T07:00:14;6.00;;;2.07;;
29380;SDS011;16364;52.490;13.326;2023-10-09T07:02:57;3.30;;;2.20;;
29380;SDS011;16364;52.490;13.326;2023-10-09T07:05:23;2.73;;;2.27;;
29380;SDS011;16364;52.490;13.326;2023-10-09T07:08:02;4.40;;;2.60;;
29380;SDS011;16364;52.490;13.326;2023-10-09T07:10:47;2.53;;;2.07;;
29380;SDS011;16364;52.490;13.326;2023-10-09T07:13:27;3.67;;;2.13;;
29380;SDS011;16364;52.490;13.326;2023-10-09T07:15:53;2.33;;;2.10;;
29380;SDS011;16364;52.490;13.326;2023-10-09T07:18:36;2.80;;;1.90;;
29380;SDS011;16364;52.490;13.326;2023-10-09T07:21:14;2.37;;;2.17;;
29380;SDS011;16364;52.490;13.326;2023-10-09T07:23:43;2.60;;;2.40;;
29380;SDS011;16364;52.490;13.326;2023-10-09T07:26:14;4.13;;;3.10;;
29380;SDS011;16364;52.490;13.326;2023-10-09T07:29:01;4.60;;;4.00;;
29380;SDS011;16364;52.490;13.326;2023-10-09T07:31:41;3.53;;;3.03;;
29380;SDS011;16364;52.490;13.326;2023-10-09T07:34:10;3.13;;;2.70;;
29380;SDS011;16364;52.490;13.326;2023-10-09T07:36:55;3.70;;;3.10;;
29380;SDS011;16364;52.490;13.326;2023-10-09T07:39:28;2.97;;;2.70;;
29380;SDS011;16364;52.490;13.326;2023-10-09T07:41:59;3.30;;;2.67;;
29380;SDS011;16364;52.490;13.326;2023-10-09T07:44:40;4.23;;;3.10;;
29380;SDS011;16364;52.490;13.326;2023-10-09T07:47:07;3.17;;;2.53;;
29380;SDS011;16364;52.490;13.326;2023-10-09T07:49:42;6.27;;;4.10;;
29380;SDS011;16364;52.490;13.326;2023-10-09T07:52:14;5.13;;;3.77;;
29380;SDS011;16364;52.490;13.326;2023-10-09T07:54:39;3.77;;;3.40;;
29380;SDS011;16364;52.490;13.326;2023-10-09T07:57:13;4.10;;;3.23;;
29380;SDS011;16364;52.490;13.326;2023-10-09T07:59:41;4.30;;;2.97;;
29380;SDS011;16364;52.490;13.326;2023-10-09T08:02:19;4.47;;;3.73;;
29380;SDS011;16364;52.490;13.326;2023-10-09T08:04:54;4.50;;;2.93;;
29380;SDS011;16364;52.490;13.326;2023-10-09T08:07:20;3.30;;;3.00;;
29380;SDS011;16364;52.490;13.326;2023-10-09T08:09:50;2.87;;;2.57;;
29380;SDS011;16364;52.490;13.326;2023-10-09T08:12:35;3.10;;;2.80;;
29380;SDS011;16364;52.490;13.326;2023-10-09T08:15:22;3.10;;;2.80;;
29380;SDS011;16364;52.490;13.326;2023-10-09T08:17:52;3.80;;;3.50;;
29380;SDS011;16364;52.490;13.326;2023-10-09T08:20:38;3.07;;;2.80;;
29380;SDS011;16364;52.490;13.326;2023-10-09T08:23:22;2.90;;;2.20;;
29380;SDS011;16364;52.490;13.326;2023-10-09T08:26:00;2.50;;;2.10;;
29380;SDS011;16364;52.490;13.326;2023-10-09T08:28:37;2.70;;;2.50;;
29380;SDS011;16364;52.490;13.326;2023-10-09T08:31:17;3.73;;;3.10;;
29380;SDS011;16364;52.490;13.326;2023-10-09T08:34:10;6.27;;;3.97;;
29380;SDS011;16364;52.490;13.326;2023-10-09T08:36:48;5.17;;;3.00;;
29380;SDS011;16364;52.490;13.326;2023-10-09T08:39:17;5.50;;;4.90;;
29380;SDS011;16364;52.490;13.326;2023-10-09T08:41:50;4.37;;;3.97;;
29380;SDS011;16364;52.490;13.326;2023-10-09T08:44:17;5.03;;;4.57;;
29380;SDS011;16364;52.490;13.326;2023-10-09T08:46:46;2.60;;;2.40;;
29380;SDS011;16364;52.490;13.326;2023-10-09T08:49:11;2.70;;;2.47;;
29380;SDS011;16364;52.490;13.326;2023-10-09T08:51:37;5.17;;;2.87;;
29380;SDS011;16364;52.490;13.326;2023-10-09T08:54:02;3.50;;;3.20;;
29380;SDS011;16364;52.490;13.326;2023-10-09T08:56:29;2.93;;;2.73;;
29380;SDS011;16364;52.490;13.326;2023-10-09T08:58:56;4.20;;;3.30;;
29380;SDS011;16364;52.490;13.326;2023-10-09T09:01:22;3.80;;;3.30;;
29380;SDS011;16364;52.490;13.326;2023-10-09T09:03:49;3.10;;;2.80;;
29380;SDS011;16364;52.490;13.326;2023-10-09T09:06:15;4.13;;;2.90;;
29380;SDS011;16364;52.490;13.326;2023-10-09T09:08:42;3.13;;;2.27;;
29380;SDS011;16364;52.490;13.326;2023-10-09T09:11:10;3.90;;;2.07;;
29380;SDS011;16364;52.490;13.326;2023-10-09T09:14:02;2.63;;;2.43;;
29380;SDS011;16364;52.490;13.326;2023-10-09T09:16:31;3.07;;;2.27;;
29380;SDS011;16364;52.490;13.326;2023-10-09T09:19:01;2.67;;;2.43;;
29380;SDS011;16364;52.490;13.326;2023-10-09T09:21:31;3.13;;;2.83;;
29380;SDS011;16364;52.490;13.326;2023-10-09T09:24:03;3.23;;;2.93;;
29380;SDS011;16364;52.490;13.326;2023-10-09T09:26:41;2.60;;;2.40;;
29380;SDS011;16364;52.490;13.326;2023-10-09T09:29:12;5.10;;;2.90;;
29380;SDS011;16364;52.490;13.326;2023-10-09T09:31:37;3.13;;;2.90;;
29380;SDS011;16364;52.490;13.326;2023-10-09T09:34:06;3.63;;;3.07;;
29380;SDS011;16364;52.490;13.326;2023-10-09T09:36:57;3.40;;;3.10;;
29380;SDS011;16364;52.490;13.326;2023-10-09T09:39:25;3.30;;;2.70;;
29380;SDS011;16364;52.490;13.326;2023-10-09T09:41:57;2.97;;;2.67;;
29380;SDS011;16364;52.490;13.326;2023-10-09T09:44:27;3.13;;;2.67;;
29380;SDS011;16364;52.490;13.326;2023-10-09T09:46:56;2.50;;;2.30;;
29380;SDS011;16364;52.490;13.326;2023-10-09T09:49:22;3.10;;;2.80;;
29380;SDS011;16364;52.490;13.326;2023-10-09T09:51:48;5.53;;;3.13;;
29380;SDS011;16364;52.490;13.326;2023-10-09T09:54:14;3.33;;;3.03;;
29380;SDS011;16364;52.490;13.326;2023-10-09T09:56:45;3.63;;;3.33;;
29380;SDS011;16364;52.490;13.326;2023-10-09T09:59:16;5.30;;;3.73;;
29380;SDS011;16364;52.490;13.326;2023-10-09T10:01:47;4.30;;;2.90;;
29380;SDS011;16364;52.490;13.326;2023-10-09T10:04:21;3.30;;;3.00;;
29380;SDS011;16364;52.490;13.326;2023-10-09T10:06:49;2.83;;;2.50;;
29380;SDS011;16364;52.490;13.326;2023-10-09T10:12:03;3.90;;;3.60;;
29380;SDS011;16364;52.490;13.326;2023-10-09T10:14:51;3.60;;;3.17;;
29380;SDS011;16364;52.490;13.326;2023-10-09T10:17:17;4.43;;;3.13;;
29380;SDS011;16364;52.490;13.326;2023-10-09T10:19:58;4.43;;;3.90;;
29380;SDS011;16364;52.490;13.326;2023-10-09T10:22:39;7.77;;;3.97;;
29380;SDS011;16364;52.490;13.326;2023-10-09T10:25:31;6.47;;;5.07;;
29380;SDS011;16364;52.490;13.326;2023-10-09T10:28:16;4.50;;;4.10;;
29380;SDS011;16364;52.490;13.326;2023-10-09T10:30:47;5.53;;;4.27;;
29380;SDS011;16364;52.490;13.326;2023-10-09T10:33:15;6.00;;;4.03;;
29380;SDS011;16364;52.490;13.326;2023-10-09T10:35:41;6.33;;;4.03;;
29380;SDS011;16364;52.490;13.326;2023-10-09T10:40:49;5.80;;;4.80;;
29380;SDS011;16364;52.490;13.326;2023-10-09T10:43:25;4.83;;;4.37;;
29380;SDS011;16364;52.490;13.326;2023-10-09T10:46:15;5.77;;;4.50;;
29380;SDS011;16364;52.490;13.326;2023-10-09T10:49:03;5.00;;;4.60;;
29380;SDS011;16364;52.490;13.326;2023-10-09T10:51:39;5.33;;;4.80;;
29380;SDS011;16364;52.490;13.326;2023-10-09T10:54:06;5.67;;;5.17;;
29380;SDS011;16364;52.490;13.326;2023-10-09T10:56:50;7.30;;;6.30;;
29380;SDS011;16364;52.490;13.326;2023-10-09T10:59:16;6.90;;;6.20;;
29380;SDS011;16364;52.490;13.326;2023-10-09T11:01:48;6.27;;;4.60;;
29380;SDS011;16364;52.490;13.326;2023-10-09T11:04:26;4.30;;;4.00;;
29380;SDS011;16364;52.490;13.326;2023-10-09T11:07:00;6.10;;;5.50;;
29380;SDS011;16364;52.490;13.326;2023-10-09T11:12:22;7.27;;;4.90;;
29380;SDS011;16364;52.490;13.326;2023-10-09T11:14:49;4.50;;;4.10;;
29380;SDS011;16364;52.490;13.326;2023-10-09T11:17:35;8.17;;;6.10;;
29380;SDS011;16364;52.490;13.326;2023-10-09T11:20:04;6.00;;;5.50;;
29380;SDS011;16364;52.490;13.326;2023-10-09T11:22:50;4.83;;;4.10;;
29380;SDS011;16364;52.490;13.326;2023-10-09T11:25:39;4.43;;;4.13;;
29380;SDS011;16364;52.490;13.326;2023-10-09T11:28:21;5.30;;;4.90;;
29380;SDS011;16364;52.490;13.326;2023-10-09T11:30:55;6.53;;;6.03;;
29380;SDS011;16364;52.490;13.326;2023-10-09T11:33:20;5.00;;;4.60;;
29380;SDS011;16364;52.490;13.326;2023-10-09T11:35:56;5.13;;;4.70;;
29380;SDS011;16364;52.490;13.326;2023-10-09T11:38:22;5.33;;;4.83;;
29380;SDS011;16364;52.490;13.326;2023-10-09T11:40:48;5.80;;;5.40;;
29380;SDS011;16364;52.490;13.326;2023-10-09T11:43:46;5.60;;;5.10;;
29380;SDS011;16364;52.490;13.326;2023-10-09T11:46:18;5.53;;;5.00;;
29380;SDS011;16364;52.490;13.326;2023-10-09T11:49:09;5.40;;;4.70;;
29380;SDS011;16364;52.490;13.326;2023-10-09T11:52:07;6.40;;;5.90;;
29380;SDS011;16364;52.490;13.326;2023-10-09T11:54:38;6.37;;;5.67;;
29380;SDS011;16364;52.490;13.326;2023-10-09T11:57:03;5.27;;;4.87;;
29380;SDS011;16364;52.490;13.326;2023-10-09T11:59:29;6.43;;;5.87;;
29380;SDS011;16364;52.490;13.326;2023-10-09T12:02:03;6.43;;;5.53;;
29380;SDS011;16364;52.490;13.326;2023-10-09T12:04:28;6.77;;;6.17;;
29380;SDS011;16364;52.490;13.326;2023-10-09T12:06:58;6.20;;;5.73;;
29380;SDS011;16364;52.490;13.326;2023-10-09T12:09:32;6.37;;;5.30;;
29380;SDS011;16364;52.490;13.326;2023-10-09T12:11:59;6.23;;;4.90;;
29380;SDS011;16364;52.490;13.326;2023-10-09T12:14:25;6.33;;;5.80;;
29380;SDS011;16364;52.490;13.326;2023-10-09T12:16:51;4.90;;;4.50;;
29380;SDS011;16364;52.490;13.326;2023-10-09T12:19:17;5.50;;;4.33;;
29380;SDS011;16364;52.490;13.326;2023-10-09T12:21:43;5.20;;;4.80;;
29380;SDS011;16364;52.490;13.326;2023-10-09T12:24:08;6.17;;;5.50;;
29380;SDS011;16364;52.490;13.326;2023-10-09T12:26:37;4.37;;;3.97;;
29380;SDS011;16364;52.490;13.326;2023-10-09T12:29:04;4.50;;;4.10;;
29380;SDS011;16364;52.490;13.326;2023-10-09T12:31:35;4.53;;;4.13;;
29380;SDS011;16364;52.490;13.326;2023-10-09T12:34:01;5.27;;;4.90;;
29380;SDS011;16364;52.490;13.326;2023-10-09T12:36:26;4.13;;;3.80;;
29380;SDS011;16364;52.490;13.326;2023-10-09T12:38:51;7.20;;;6.50;;
29380;SDS011;16364;52.490;13.326;2023-10-09T12:41:23;26.27;;;15.83;;
29380;SDS011;16364;52.490;13.326;2023-10-09T12:43:53;13.43;;;10.30;;
29380;SDS011;16364;52.490;13.326;2023-10-09T12:46:19;11.63;;;8.90;;
29380;SDS011;16364;52.490;13.326;2023-10-09T12:48:48;5.90;;;5.40;;
29380;SDS011;16364;52.490;13.326;2023-10-09T12:51:13;9.63;;;6.20;;
29380;SDS011;16364;52.490;13.326;2023-10-09T12:53:44;8.90;;;7.70;;
29380;SDS011;16364;52.490;13.326;2023-10-09T12:56:10;7.63;;;6.93;;
29380;SDS011;16364;52.490;13.326;2023-10-09T12:58:37;6.20;;;5.70;;
29380;SDS011;16364;52.490;13.326;2023-10-09T13:01:02;45.57;;;22.73;;
29380;SDS011;16364;52.490;13.326;2023-10-09T13:03:34;35.17;;;19.37;;
29380;SDS011;16364;52.490;13.326;2023-10-09T13:06:03;24.80;;;14.40;;
29380;SDS011;16364;52.490;13.326;2023-10-09T13:08:32;13.53;;;11.27;;
29380;SDS011;16364;52.490;13.326;2023-10-09T13:11:07;10.50;;;9.03;;
29380;SDS011;16364;52.490;13.326;2023-10-09T13:13:36;9.07;;;8.23;;
29380;SDS011;16364;52.490;13.326;2023-10-09T13:16:05;8.20;;;7.00;;
29380;SDS011;16364;52.490;13.326;2023-10-09T13:18:31;8.40;;;7.60;;
29380;SDS011;16364;52.490;13.326;2023-10-09T13:20:57;7.80;;;7.10;;
29380;SDS011;16364;52.490;13.326;2023-10-09T13:23:22;8.13;;;7.30;;
29380;SDS011;16364;52.490;13.326;2023-10-09T13:25:52;7.33;;;6.60;;
29380;SDS011;16364;52.490;13.326;2023-10-09T13:28:18;10.13;;;9.10;;
29380;SDS011;16364;52.490;13.326;2023-10-09T13:30:45;8.13;;;7.53;;
29380;SDS011;16364;52.490;13.326;2023-10-09T13:33:14;7.13;;;6.53;;
29380;SDS011;16364;52.490;13.326;2023-10-09T13:35:42;7.80;;;7.20;;
29380;SDS011;16364;52.490;13.326;2023-10-09T13:38:15;6.67;;;6.17;;
29380;SDS011;16364;52.490;13.326;2023-10-09T13:40:41;7.17;;;6.47;;
29380;SDS011;16364;52.490;13.326;2023-10-09T13:43:07;6.63;;;6.03;;
29380;SDS011;16364;52.490;13.326;2023-10-09T13:45:37;6.40;;;5.80;;
29380;SDS011;16364;52.490;13.326;2023-10-09T13:48:03;6.53;;;6.10;;
29380;SDS011;16364;52.490;13.326;2023-10-09T13:50:29;6.07;;;5.47;;
29380;SDS011;16364;52.490;13.326;2023-10-09T13:52:58;6.40;;;6.00;;
29380;SDS011;16364;52.490;13.326;2023-10-09T13:55:23;8.33;;;7.20;;
29380;SDS011;16364;52.490;13.326;2023-10-09T13:57:56;7.50;;;6.80;;
29380;SDS011;16364;52.490;13.326;2023-10-09T14:00:22;7.63;;;6.10;;
29380;SDS011;16364;52.490;13.326;2023-10-09T14:03:07;6.40;;;5.80;;
29380;SDS011;16364;52.490;13.326;2023-10-09T14:05:39;6.40;;;5.90;;
29380;SDS011;16364;52.490;13.326;2023-10-09T14:08:16;6.90;;;6.20;;
29380;SDS011;16364;52.490;13.326;2023-10-09T14:10:41;6.67;;;5.97;;
29380;SDS011;16364;52.490;13.326;2023-10-09T14:13:07;6.03;;;5.60;;
29380;SDS011;16364;52.490;13.326;2023-10-09T14:15:37;8.00;;;7.20;;
29380;SDS011;16364;52.490;13.326;2023-10-09T14:18:06;6.90;;;6.20;;
29380;SDS011;16364;52.490;13.326;2023-10-09T14:20:33;7.13;;;6.63;;
29380;SDS011;16364;52.490;13.326;2023-10-09T14:22:59;8.10;;;7.30;;
29380;SDS011;16364;52.490;13.326;2023-10-09T14:25:31;7.37;;;6.67;;
29380;SDS011;16364;52.490;13.326;2023-10-09T14:27:56;7.17;;;6.57;;
29380;SDS011;16364;52.490;13.326;2023-10-09T14:30:23;9.27;;;8.33;;
29380;SDS011;16364;52.490;13.326;2023-10-09T14:32:55;7.70;;;7.10;;
29380;SDS011;16364;52.490;13.326;2023-10-09T14:35:21;7.80;;;7.00;;
29380;SDS011;16364;52.490;13.326;2023-10-09T14:37:51;8.10;;;7.50;;
29380;SDS011;16364;52.490;13.326;2023-10-09T14:40:18;8.30;;;7.63;;
29380;SDS011;16364;52.490;13.326;2023-10-09T14:42:46;8.90;;;8.00;;
29380;SDS011;16364;52.490;13.326;2023-10-09T14:45:11;6.93;;;6.33;;
29380;SDS011;16364;52.490;13.326;2023-10-09T14:47:44;7.70;;;7.00;;
29380;SDS011;16364;52.490;13.326;2023-10-09T14:50:11;8.93;;;8.03;;
29380;SDS011;16364;52.490;13.326;2023-10-09T14:52:38;9.87;;;8.87;;
29380;SDS011;16364;52.490;13.326;2023-10-09T14:55:04;9.20;;;8.20;;
29380;SDS011;16364;52.490;13.326;2023-10-09T14:57:30;45.60;;;23.13;;
29380;SDS011;16364;52.490;13.326;2023-10-09T14:59:58;133.00;;;60.73;;
29380;SDS011;16364;52.490;13.326;2023-10-09T15:02:24;93.17;;;51.07;;
29380;SDS011;16364;52.490;13.326;2023-10-09T15:04:49;34.63;;;23.47;;
29380;SDS011;16364;52.490;13.326;2023-10-09T15:07:14;19.40;;;14.47;;
29380;SDS011;16364;52.490;13.326;2023-10-09T15:09:40;12.00;;;10.37;;
29380;SDS011;16364;52.490;13.326;2023-10-09T15:12:06;11.30;;;8.97;;